createdAt,value
2019-02-23T00:00:55.188Z,6.32
2019-02-23T00:05:57.084Z,6.26
2019-02-23T00:10:58.635Z,6.21
2019-02-23T00:16:00.228Z,6.17
2019-02-23T00:21:01.765Z,6.17
2019-02-23T00:26:03.286Z,6.14
2019-02-23T00:31:05.205Z,6.15
2019-02-23T00:36:06.765Z,6.11
2019-02-23T00:41:08.744Z,6.08
2019-02-23T00:46:10.621Z,6.04
2019-02-23T00:51:12.237Z,5.99
2019-02-23T00:56:13.770Z,5.95
2019-02-23T01:01:15.337Z,5.91
2019-02-23T01:06:16.847Z,5.81
2019-02-23T01:11:18.412Z,5.66
2019-02-23T01:16:19.950Z,5.73
2019-02-23T01:21:21.468Z,5.66
2019-02-23T01:26:23.027Z,5.57
2019-02-23T01:31:24.566Z,5.49
2019-02-23T01:36:26.137Z,5.47
2019-02-23T01:41:28.101Z,5.44
2019-02-23T01:46:29.670Z,5.40
2019-02-23T01:51:31.266Z,5.36
2019-02-23T01:56:32.798Z,5.32
2019-02-23T02:01:34.357Z,5.30
2019-02-23T02:06:35.911Z,5.27
2019-02-23T02:11:37.808Z,5.24
2019-02-23T02:16:39.396Z,5.21
2019-02-23T02:21:41.260Z,5.14
2019-02-23T02:26:42.839Z,5.12
2019-02-23T02:31:44.709Z,5.07
2019-02-23T02:36:46.268Z,5.03
2019-02-23T02:41:47.900Z,5.00
2019-02-23T02:46:49.846Z,4.97
2019-02-23T02:51:51.355Z,4.97
2019-02-23T02:56:52.975Z,4.95
2019-02-23T03:01:54.859Z,4.94
2019-02-23T03:06:56.409Z,4.96
2019-02-23T03:11:58.336Z,4.98
2019-02-23T03:16:59.899Z,5.01
2019-02-23T03:22:01.490Z,5.02
2019-02-23T03:27:03.512Z,5.02
2019-02-23T03:32:05.029Z,5.02
2019-02-23T03:37:06.640Z,5.01
2019-02-23T03:42:08.245Z,5.00
2019-02-23T03:47:09.906Z,4.99
2019-02-23T03:52:11.561Z,4.95
2019-02-23T03:57:13.186Z,4.93
2019-02-23T04:02:15.548Z,4.92
2019-02-23T04:07:17.426Z,4.88
2019-02-23T04:12:18.970Z,4.82
2019-02-23T04:17:20.523Z,4.80
2019-02-23T04:22:22.412Z,4.76
2019-02-23T04:27:24.442Z,4.71
2019-02-23T04:32:25.968Z,4.65
2019-02-23T04:37:27.525Z,4.58
2019-02-23T04:42:29.184Z,4.53
2019-02-23T04:47:31.140Z,4.48
2019-02-23T04:52:32.706Z,4.43
2019-02-23T04:57:34.334Z,4.38
2019-02-23T05:02:35.866Z,4.31
2019-02-23T05:07:37.420Z,4.24
2019-02-23T05:12:38.958Z,4.19
2019-02-23T05:17:40.911Z,4.14
2019-02-23T05:22:42.456Z,4.09
2019-02-23T05:27:44.106Z,4.06
2019-02-23T05:32:45.640Z,4.04
2019-02-23T05:37:47.223Z,4.02
2019-02-23T05:43:00.100Z,3.98
2019-02-23T05:47:52.351Z,3.91
2019-02-23T05:52:53.966Z,3.81
2019-02-23T05:57:55.611Z,3.73
2019-02-23T06:02:57.237Z,3.64
2019-02-23T06:07:59.461Z,3.56
2019-02-23T06:13:01.021Z,3.54
2019-02-23T06:18:02.673Z,3.49
2019-02-23T06:23:04.467Z,3.45
2019-02-23T06:28:05.984Z,3.38
2019-02-23T06:33:07.620Z,3.37
2019-02-23T06:38:09.297Z,3.35
2019-02-23T06:43:10.825Z,3.35
2019-02-23T06:48:12.425Z,3.33
2019-02-23T06:53:14.435Z,3.33
2019-02-23T06:58:16.533Z,3.34
2019-02-23T07:03:18.200Z,3.43
2019-02-23T07:08:19.816Z,3.42
2019-02-23T07:13:21.379Z,3.58
2019-02-23T07:18:23.076Z,3.68
2019-02-23T07:23:24.654Z,3.72
2019-02-23T07:28:26.228Z,3.80
2019-02-23T07:33:32.989Z,3.88
2019-02-23T07:38:31.319Z,3.92
2019-02-23T07:43:32.993Z,3.99
2019-02-23T07:48:34.531Z,4.05
2019-02-23T07:53:36.197Z,4.10
2019-02-23T07:58:38.185Z,4.14
2019-02-23T08:03:39.760Z,4.22
2019-02-23T08:08:41.461Z,4.28
2019-02-23T08:13:43.197Z,4.33
2019-02-23T08:18:44.755Z,4.41
2019-02-23T08:23:46.329Z,4.48
2019-02-23T08:28:47.888Z,4.55
2019-02-23T08:33:49.447Z,4.61
2019-02-23T08:38:51.038Z,4.70
2019-02-23T08:43:52.674Z,4.78
2019-02-23T08:48:54.344Z,4.83
2019-02-23T08:53:55.901Z,4.89
2019-02-23T08:58:57.551Z,5.03
2019-02-23T09:03:59.085Z,5.34
2019-02-23T09:09:00.653Z,5.63
2019-02-23T09:14:02.136Z,5.92
2019-02-23T09:19:03.862Z,6.25
2019-02-23T09:24:05.501Z,6.53
2019-02-23T09:29:07.177Z,6.84
2019-02-23T09:34:08.889Z,7.16
2019-02-23T09:39:10.456Z,7.41
2019-02-23T09:44:12.195Z,7.73
2019-02-23T09:49:14.190Z,7.91
2019-02-23T09:54:15.734Z,8.04
2019-02-23T09:59:17.300Z,8.24
2019-02-23T10:04:19.260Z,8.37
2019-02-23T10:09:21.007Z,8.95
2019-02-23T10:14:22.645Z,9.30
2019-02-23T10:19:24.242Z,9.42
2019-02-23T10:24:25.808Z,9.59
2019-02-23T10:29:27.407Z,9.84
2019-02-23T10:34:29.012Z,10.02
2019-02-23T10:39:30.952Z,10.15
2019-02-23T10:44:32.482Z,10.32
2019-02-23T10:49:35.108Z,10.58
2019-02-23T10:54:36.674Z,10.61
2019-02-23T10:59:38.268Z,10.87
2019-02-23T11:04:39.819Z,11.11
2019-02-23T11:09:41.411Z,11.08
2019-02-23T11:14:42.897Z,11.12
2019-02-23T11:19:44.758Z,11.22
2019-02-23T11:24:46.570Z,11.29
2019-02-23T11:29:48.204Z,11.25
2019-02-23T11:34:50.351Z,11.31
2019-02-23T11:39:52.321Z,11.34
2019-02-23T11:44:53.892Z,11.43
2019-02-23T11:49:55.581Z,11.62
2019-02-23T11:54:57.444Z,11.58
2019-02-23T11:59:59.126Z,11.60
2019-02-23T12:05:00.704Z,11.73
2019-02-23T12:10:02.397Z,11.78
2019-02-23T12:15:04.252Z,11.86
2019-02-23T12:20:05.990Z,11.93
2019-02-23T12:25:07.620Z,12.08
2019-02-23T12:30:09.242Z,12.18
2019-02-23T12:35:11.281Z,12.32
2019-02-23T12:40:12.971Z,12.54
2019-02-23T12:45:14.899Z,12.61
2019-02-23T12:50:16.620Z,12.74
2019-02-23T12:55:18.534Z,12.84
2019-02-23T13:00:20.366Z,12.96
2019-02-23T13:05:21.904Z,13.13
2019-02-23T13:10:23.546Z,13.13
2019-02-23T13:15:36.590Z,13.21
2019-02-23T13:21:23.007Z,13.30
2019-02-23T13:26:55.771Z,13.43
2019-02-23T13:32:39.919Z,13.55
2019-02-23T13:38:10.276Z,13.50
2019-02-23T13:43:43.021Z,13.60
2019-02-23T13:49:17.726Z,13.79
2019-02-23T13:55:04.152Z,13.82
2019-02-23T14:00:53.547Z,13.91
2019-02-23T14:06:21.610Z,13.99
2019-02-23T14:11:52.671Z,14.08
2019-02-23T14:17:35.631Z,14.08
2019-02-23T14:23:30.961Z,14.17
2019-02-23T14:29:06.090Z,14.26
2019-02-23T14:35:03.128Z,14.19
2019-02-23T14:40:58.428Z,14.25
2019-02-23T14:46:37.543Z,14.37
2019-02-23T14:52:14.692Z,14.57
2019-02-23T14:57:39.548Z,14.60
2019-02-23T15:03:24.059Z,14.61
2019-02-23T15:09:00.696Z,14.56
2019-02-23T15:14:33.987Z,14.55
2019-02-23T15:20:07.071Z,14.57
2019-02-23T15:25:59.043Z,14.56
2019-02-23T15:31:29.144Z,14.65
2019-02-23T15:37:01.028Z,14.63
2019-02-23T15:42:44.596Z,14.56
2019-02-23T15:48:14.928Z,14.47
2019-02-23T15:53:17.383Z,14.38
2019-02-23T15:58:18.946Z,14.32
2019-02-23T16:03:20.521Z,14.31
2019-02-23T16:08:22.076Z,14.26
2019-02-23T16:13:23.657Z,14.21
2019-02-23T16:18:25.239Z,14.12
2019-02-23T16:23:36.750Z,14.03
2019-02-23T16:28:30.372Z,13.87
2019-02-23T16:33:32.139Z,13.76
2019-02-23T16:38:34.305Z,13.53
2019-02-23T16:43:35.892Z,13.39
2019-02-23T16:48:37.443Z,13.17
2019-02-23T16:53:39.067Z,13.00
2019-02-23T16:58:40.714Z,12.74
2019-02-23T17:03:42.577Z,12.50
2019-02-23T17:08:44.203Z,12.25
2019-02-23T17:13:46.126Z,11.99
2019-02-23T17:18:47.850Z,11.77
2019-02-23T17:23:49.509Z,11.54
2019-02-23T17:28:51.689Z,11.34
2019-02-23T17:33:53.423Z,11.12
2019-02-23T17:38:55.103Z,10.91
2019-02-23T17:43:57.666Z,10.70
2019-02-23T17:48:59.716Z,10.50
2019-02-23T17:54:01.674Z,10.31
2019-02-23T17:59:03.883Z,10.15
2019-02-23T18:04:05.657Z,10.00
2019-02-23T18:09:07.629Z,9.81
2019-02-23T18:14:09.287Z,9.60
2019-02-23T18:19:10.872Z,9.50
2019-02-23T18:24:14.446Z,9.43
2019-02-23T18:29:16.188Z,9.31
2019-02-23T18:34:17.886Z,9.16
2019-02-23T18:39:19.522Z,9.00
2019-02-23T18:44:21.167Z,8.90
2019-02-23T18:49:22.757Z,8.77
2019-02-23T18:54:24.445Z,8.65
2019-02-23T18:59:26.493Z,8.54
2019-02-23T19:04:28.729Z,8.43
2019-02-23T19:09:30.440Z,8.31
2019-02-23T19:14:32.357Z,8.22
2019-02-23T19:19:34.304Z,8.10
2019-02-23T19:24:36.253Z,7.99
2019-02-23T19:29:37.871Z,7.88
2019-02-23T19:34:41.560Z,7.71
2019-02-23T19:39:43.247Z,7.52
2019-02-23T19:44:45.152Z,7.40
2019-02-23T19:49:48.049Z,7.23
2019-02-23T19:54:49.935Z,7.08
2019-02-23T19:59:51.684Z,6.96
2019-02-23T20:04:53.388Z,6.81
2019-02-23T20:09:54.922Z,6.74
2019-02-23T20:14:56.582Z,6.67
2019-02-23T20:19:58.178Z,6.58
2019-02-23T20:24:59.844Z,6.50
2019-02-23T20:30:01.939Z,6.36
2019-02-23T20:35:03.751Z,6.23
2019-02-23T20:40:05.824Z,6.14
2019-02-23T20:45:07.436Z,6.12
2019-02-23T20:50:09.238Z,6.18
2019-02-23T20:55:10.952Z,6.19
2019-02-23T21:00:12.710Z,6.17
2019-02-23T21:05:14.795Z,6.13
2019-02-23T21:10:16.408Z,6.10
2019-02-23T21:15:18.582Z,6.07
2019-02-23T21:20:20.281Z,6.06
2019-02-23T21:25:21.880Z,6.04
2019-02-23T21:30:23.779Z,5.99
2019-02-23T21:35:25.315Z,6.00
2019-02-23T21:40:27.032Z,5.97
2019-02-23T21:45:28.607Z,5.94
2019-02-23T21:50:30.418Z,5.92
2019-02-23T21:55:32.130Z,5.89
2019-02-23T22:00:34.287Z,5.85
2019-02-23T22:05:36.051Z,5.78
2019-02-23T22:10:37.574Z,5.71
2019-02-23T22:15:39.660Z,5.68
2019-02-23T22:20:41.240Z,5.63
2019-02-23T22:25:42.919Z,5.57
2019-02-23T22:30:44.454Z,5.54
2019-02-23T22:35:46.288Z,5.54
2019-02-23T22:40:48.115Z,5.49
2019-02-23T22:45:49.691Z,5.43
2019-02-23T22:50:51.676Z,5.42
2019-02-23T22:55:53.365Z,5.37
2019-02-23T23:00:55.336Z,5.36
2019-02-23T23:05:57.064Z,5.32
2019-02-23T23:10:58.624Z,5.27
2019-02-23T23:16:00.222Z,5.17
2019-02-23T23:21:01.791Z,5.09
2019-02-23T23:26:03.473Z,5.02
2019-02-23T23:31:05.422Z,4.96
2019-02-23T23:36:07.420Z,4.92
2019-02-23T23:41:09.005Z,4.84
2019-02-23T23:46:10.727Z,4.75
2019-02-23T23:51:12.562Z,4.71
2019-02-23T23:56:14.115Z,4.69
